Time;durP1;ratioP1;P1;durP2;ratioP2;P2;SDS_P1;SDS_P2;PMS_P1;PMS_P2;Temp;Humidity;BMP_temperature;BMP_pressure;BME280_temperature;BME280_humidity;BME280_pressure;Samples;Min_cycle;Max_cycle;Signal;HPM_P1;HPM_P2
2021/03/26 00:02:02;;;;;;;9.97;5.13;;;6.50;99.90;;;;;;5049446;28;20210;-86
2021/03/26 00:04:28;;;;;;;11.80;4.83;;;6.50;99.90;;;;;;5032414;28;20644;-85
2021/03/26 00:06:55;;;;;;;9.63;4.60;;;6.50;99.90;;;;;;5037278;28;20974;-86
2021/03/26 00:09:24;;;;;;;11.30;4.70;;;6.60;99.90;;;;;;5043409;28;20198;-86
2021/03/26 00:11:51;;;;;;;11.30;4.93;;;6.70;99.90;;;;;;5050844;28;20223;-86
2021/03/26 00:14:19;;;;;;;9.13;5.00;;;6.60;99.90;;;;;;5051880;28;20597;-86
2021/03/26 00:16:45;;;;;;;8.97;4.50;;;6.60;99.90;;;;;;5052109;28;20192;-86
2021/03/26 00:19:13;;;;;;;9.80;5.10;;;6.60;99.90;;;;;;5048936;28;20644;-86
2021/03/26 00:21:40;;;;;;;10.53;4.50;;;6.60;99.90;;;;;;5051929;28;20305;-86
2021/03/26 00:24:08;;;;;;;11.53;4.20;;;6.60;99.90;;;;;;5052001;28;20714;-85
2021/03/26 00:26:34;;;;;;;11.20;4.40;;;6.60;99.90;;;;;;5052085;28;20286;-86
2021/03/26 00:29:01;;;;;;;9.10;4.53;;;6.70;99.90;;;;;;5052344;28;20670;-86
2021/03/26 00:31:28;;;;;;;10.60;4.40;;;6.90;99.90;;;;;;5051344;28;20202;-86
2021/03/26 00:33:54;;;;;;;7.90;4.10;;;6.80;99.90;;;;;;5052234;28;20285;-86
2021/03/26 00:36:22;;;;;;;10.87;4.30;;;6.90;99.90;;;;;;5043645;28;20216;-86
2021/03/26 00:38:48;;;;;;;10.67;4.40;;;6.80;99.90;;;;;;5032160;28;20231;-86
2021/03/26 00:41:15;;;;;;;9.20;4.23;;;6.80;99.90;;;;;;5034042;28;20206;-86
2021/03/26 00:43:41;;;;;;;12.17;4.50;;;7.00;99.90;;;;;;5034024;28;20209;-87
2021/03/26 00:46:08;;;;;;;10.83;4.43;;;7.00;99.90;;;;;;5050111;28;20207;-86
2021/03/26 00:48:34;;;;;;;11.30;4.90;;;7.20;99.90;;;;;;5043641;28;20211;-86
2021/03/26 00:51:02;;;;;;;7.63;4.13;;;7.10;99.90;;;;;;5032499;28;20196;-86
2021/03/26 00:53:35;;;;;;;8.33;4.53;;;7.10;99.90;;;;;;5032545;28;20258;-86
2021/03/26 00:56:03;;;;;;;10.67;4.13;;;7.10;99.90;;;;;;5048338;28;20231;-85
2021/03/26 00:58:30;;;;;;;9.87;4.33;;;7.10;99.90;;;;;;5033707;28;20227;-86
2021/03/26 01:00:57;;;;;;;9.50;4.80;;;7.10;99.90;;;;;;5044520;28;20195;-87
2021/03/26 01:03:25;;;;;;;12.23;4.70;;;7.20;99.90;;;;;;5037128;28;20254;-86
2021/03/26 01:05:54;;;;;;;9.73;4.60;;;7.10;99.90;;;;;;5032557;28;20207;-86
2021/03/26 01:08:22;;;;;;;13.03;4.73;;;7.20;99.90;;;;;;5042422;28;20204;-85
2021/03/26 01:10:54;;;;;;;12.20;4.83;;;7.20;99.90;;;;;;5051399;28;20200;-86
2021/03/26 01:13:21;;;;;;;8.90;4.40;;;7.30;99.90;;;;;;5042048;28;20199;-86
2021/03/26 01:15:49;;;;;;;14.80;5.40;;;7.30;99.90;;;;;;5052363;28;20239;-86
2021/03/26 01:18:22;;;;;;;11.40;4.60;;;7.30;99.90;;;;;;5049706;28;20255;-85
2021/03/26 01:20:49;;;;;;;9.90;4.50;;;7.40;99.90;;;;;;5052587;28;20223;-86
2021/03/26 01:23:16;;;;;;;10.67;4.27;;;7.30;99.90;;;;;;5050887;28;20705;-85
2021/03/26 01:25:43;;;;;;;9.93;4.73;;;7.40;99.90;;;;;;5032410;28;20247;-85
2021/03/26 01:28:15;;;;;;;10.97;4.50;;;7.40;99.90;;;;;;5038807;28;20206;-86
2021/03/26 01:30:42;;;;;;;11.57;4.43;;;7.50;99.90;;;;;;5050583;28;20223;-85
2021/03/26 01:33:08;;;;;;;10.20;4.23;;;7.50;99.90;;;;;;5051841;28;20192;-85
2021/03/26 01:35:37;;;;;;;11.27;4.40;;;7.50;99.90;;;;;;5034566;28;20207;-85
2021/03/26 01:38:05;;;;;;;13.17;5.00;;;7.60;99.90;;;;;;5040494;28;20199;-85
2021/03/26 01:40:38;;;;;;;8.63;4.47;;;7.70;99.90;;;;;;5055115;28;20629;-85
2021/03/26 01:43:08;;;;;;;10.57;4.40;;;7.70;99.90;;;;;;5054237;28;20632;-85
2021/03/26 01:45:35;;;;;;;11.73;4.23;;;7.70;99.90;;;;;;5054555;28;20614;-86
2021/03/26 01:48:03;;;;;;;7.73;4.27;;;7.70;99.90;;;;;;5054622;28;20222;-85
2021/03/26 01:50:32;;;;;;;12.00;4.37;;;7.70;99.90;;;;;;5054128;28;20200;-85
2021/03/26 01:52:59;;;;;;;8.97;4.23;;;7.70;99.90;;;;;;5017333;28;20287;-86
2021/03/26 01:55:28;;;;;;;9.73;4.23;;;7.70;99.90;;;;;;5036332;28;20278;-85
2021/03/26 01:57:55;;;;;;;10.23;4.43;;;7.70;99.90;;;;;;5054837;28;20200;-86
2021/03/26 02:00:26;;;;;;;11.33;4.13;;;7.70;99.90;;;;;;5045655;28;20273;-86
2021/03/26 02:02:54;;;;;;;9.80;4.20;;;7.80;99.90;;;;;;5049481;28;20225;-86
2021/03/26 02:05:28;;;;;;;10.17;4.13;;;7.80;99.90;;;;;;5034838;28;20196;-86
2021/03/26 02:07:55;;;;;;;8.37;3.90;;;7.80;99.90;;;;;;5042555;28;20200;-86
2021/03/26 02:10:23;;;;;;;12.63;4.20;;;7.80;99.90;;;;;;5054904;28;20227;-85
2021/03/26 02:12:56;;;;;;;10.83;3.93;;;7.80;99.90;;;;;;5054622;28;20216;-86
2021/03/26 02:15:44;;;;;;;8.67;4.10;;;7.90;99.90;;;;;;5054100;28;20735;-86
2021/03/26 02:18:18;;;;;;;5.43;3.63;;;7.90;99.90;;;;;;5048390;28;20700;-85
2021/03/26 02:20:50;;;;;;;7.23;3.37;;;7.90;99.90;;;;;;5054241;28;20261;-85
2021/03/26 02:23:19;;;;;;;12.60;3.83;;;7.90;99.90;;;;;;5054443;28;20257;-85
2021/03/26 02:25:46;;;;;;;7.97;3.67;;;7.90;99.90;;;;;;5054331;28;20192;-85
2021/03/26 02:28:14;;;;;;;6.37;3.50;;;7.90;99.90;;;;;;5041939;28;20668;-85
2021/03/26 02:30:45;;;;;;;10.03;3.60;;;8.00;99.90;;;;;;5034359;28;20225;-86
2021/03/26 02:33:12;;;;;;;11.50;3.70;;;8.00;99.90;;;;;;5041090;28;20211;-86
2021/03/26 02:35:40;;;;;;;12.27;3.80;;;8.00;99.90;;;;;;5045131;28;20196;-86
2021/03/26 02:38:14;;;;;;;8.40;3.67;;;7.90;99.90;;;;;;5054344;28;20201;-85
2021/03/26 02:40:46;;;;;;;10.03;3.60;;;7.90;99.90;;;;;;5054289;28;20279;-86
2021/03/26 02:43:36;;;;;;;8.33;3.27;;;7.90;99.90;;;;;;5053969;28;20210;-85
2021/03/26 02:46:07;;;;;;;11.53;3.53;;;7.90;99.90;;;;;;5047729;28;20209;-85
2021/03/26 02:48:43;;;;;;;11.47;4.33;;;7.80;99.90;;;;;;5045585;28;20215;-85
2021/03/26 02:51:15;;;;;;;6.93;3.17;;;7.80;99.90;;;;;;5033991;28;20687;-87
2021/03/26 02:53:50;;;;;;;10.87;3.83;;;7.80;99.90;;;;;;5034355;28;20231;-85
2021/03/26 02:56:21;;;;;;;6.10;3.50;;;7.80;99.90;;;;;;5053746;28;20233;-87
2021/03/26 02:58:54;;;;;;;11.03;3.67;;;7.80;99.90;;;;;;5053776;28;20240;-86
2021/03/26 03:01:27;;;;;;;10.97;3.73;;;7.80;99.90;;;;;;5053848;28;20223;-86
2021/03/26 03:03:59;;;;;;;7.77;3.40;;;7.80;99.90;;;;;;5053304;28;20191;-85
2021/03/26 03:06:30;;;;;;;9.13;3.80;;;7.70;99.90;;;;;;5034733;28;20210;-85
2021/03/26 03:08:58;;;;;;;9.27;3.67;;;7.70;99.90;;;;;;5039777;28;20664;-86
2021/03/26 03:11:30;;;;;;;13.80;4.00;;;7.70;99.90;;;;;;5054007;28;20208;-86
2021/03/26 03:14:04;;;;;;;8.83;3.80;;;7.70;99.90;;;;;;5035506;28;20230;-85
2021/03/26 03:16:37;;;;;;;9.33;4.60;;;7.70;99.90;;;;;;5033791;28;20254;-86
2021/03/26 03:19:11;;;;;;;8.43;3.73;;;7.70;99.90;;;;;;5053556;28;20649;-86
2021/03/26 03:21:44;;;;;;;9.43;4.30;;;7.80;99.90;;;;;;5054311;28;20203;-86
2021/03/26 03:24:14;;;;;;;10.53;4.20;;;7.80;99.90;;;;;;5053624;28;20242;-87
2021/03/26 03:26:53;;;;;;;13.10;4.40;;;7.70;99.90;;;;;;5054240;28;20647;-86
2021/03/26 03:29:30;;;;;;;7.87;4.07;;;7.80;99.90;;;;;;5041171;28;20220;-87
2021/03/26 03:32:04;;;;;;;12.57;4.20;;;7.80;99.90;;;;;;5042222;28;20674;-85
2021/03/26 03:34:36;;;;;;;10.10;4.50;;;7.80;99.90;;;;;;5053214;28;20208;-86
2021/03/26 03:37:12;;;;;;;11.07;4.30;;;7.80;99.90;;;;;;5045756;28;20213;-86
2021/03/26 03:39:45;;;;;;;9.57;4.07;;;7.80;99.90;;;;;;5046607;28;20262;-86
2021/03/26 03:42:19;;;;;;;8.53;3.90;;;7.80;99.90;;;;;;5051203;28;20207;-85
2021/03/26 03:44:55;;;;;;;8.17;3.87;;;7.80;99.90;;;;;;5053148;28;20257;-85
2021/03/26 03:47:29;;;;;;;12.43;4.50;;;7.80;99.90;;;;;;5041947;28;20241;-85
2021/03/26 03:50:00;;;;;;;8.33;4.20;;;7.90;99.90;;;;;;5052195;28;20672;-85
2021/03/26 03:52:34;;;;;;;9.00;3.97;;;7.90;99.90;;;;;;5042589;28;20211;-86
2021/03/26 03:55:07;;;;;;;8.23;3.93;;;7.90;99.90;;;;;;5034693;28;20702;-85
2021/03/26 03:57:40;;;;;;;9.33;3.90;;;7.80;99.90;;;;;;5034081;28;20198;-85
2021/03/26 04:00:12;;;;;;;8.20;3.87;;;7.80;99.90;;;;;;5052361;28;20706;-86
2021/03/26 04:02:46;;;;;;;11.27;4.20;;;7.80;99.90;;;;;;5050808;28;20200;-85
2021/03/26 04:05:19;;;;;;;7.43;4.10;;;7.80;99.90;;;;;;5051272;28;20223;-85
2021/03/26 04:07:51;;;;;;;9.60;4.50;;;7.80;99.90;;;;;;5033147;28;20241;-85
2021/03/26 04:10:17;;;;;;;9.60;3.97;;;7.80;99.90;;;;;;5032544;28;20208;-86
2021/03/26 04:12:49;;;;;;;9.83;3.77;;;7.80;99.90;;;;;;5032453;28;20225;-86
2021/03/26 04:15:20;;;;;;;9.67;4.03;;;7.90;99.90;;;;;;5031911;28;20233;-84
2021/03/26 04:17:51;;;;;;;7.73;3.53;;;7.90;99.90;;;;;;5048235;28;20688;-85
2021/03/26 04:20:23;;;;;;;8.70;3.83;;;7.90;99.90;;;;;;5050498;28;20253;-85
2021/03/26 04:22:56;;;;;;;9.57;4.17;;;8.00;99.90;;;;;;5039142;28;20332;-85
2021/03/26 04:25:27;;;;;;;10.13;3.70;;;7.90;99.90;;;;;;5048036;28;20286;-85
2021/03/26 04:28:03;;;;;;;7.90;3.53;;;8.00;99.90;;;;;;5051724;28;20624;-85
2021/03/26 04:30:32;;;;;;;8.13;3.43;;;8.00;99.90;;;;;;5052242;28;20221;-86
2021/03/26 04:32:59;;;;;;;7.47;3.60;;;8.00;99.90;;;;;;5037207;28;20231;-85
2021/03/26 04:35:27;;;;;;;6.47;3.53;;;8.10;99.90;;;;;;5032244;28;20683;-86
2021/03/26 04:38:07;;;;;;;9.80;4.13;;;8.10;99.90;;;;;;5032500;28;20293;-85
2021/03/26 04:40:36;;;;;;;11.07;3.87;;;8.10;99.90;;;;;;5035938;28;20229;-85
2021/03/26 04:43:23;;;;;;;7.77;3.90;;;8.10;99.90;;;;;;5050963;28;20232;-85
2021/03/26 04:45:55;;;;;;;8.10;3.70;;;8.20;99.90;;;;;;5041746;28;20228;-86
2021/03/26 04:48:30;;;;;;;6.90;3.87;;;8.20;99.90;;;;;;5051658;28;20229;-87
2021/03/26 04:51:02;;;;;;;8.47;3.93;;;8.20;99.90;;;;;;5052650;28;20667;-86
2021/03/26 04:53:37;;;;;;;9.27;3.97;;;8.20;99.90;;;;;;5052564;28;20201;-86
2021/03/26 04:56:07;;;;;;;8.10;3.53;;;8.20;99.90;;;;;;5053109;28;20204;-86
2021/03/26 04:58:38;;;;;;;8.07;3.60;;;8.20;99.90;;;;;;5051159;28;20618;-85
2021/03/26 05:01:07;;;;;;;8.13;3.67;;;8.20;99.90;;;;;;5033694;28;20200;-85
2021/03/26 05:03:35;;;;;;;7.17;3.80;;;8.20;99.90;;;;;;5050932;28;20226;-86
2021/03/26 05:06:08;;;;;;;11.07;3.90;;;8.20;99.90;;;;;;5052121;28;20579;-86
2021/03/26 05:08:38;;;;;;;8.00;3.33;;;8.20;99.90;;;;;;5052338;28;20618;-86
2021/03/26 05:11:06;;;;;;;8.33;3.40;;;8.10;99.90;;;;;;5054649;28;20224;-86
2021/03/26 05:13:40;;;;;;;7.10;3.57;;;8.20;99.90;;;;;;5035821;28;20204;-86
2021/03/26 05:16:15;;;;;;;7.53;3.47;;;8.20;99.90;;;;;;5045545;28;20222;-85
2021/03/26 05:18:45;;;;;;;9.00;3.47;;;8.20;99.90;;;;;;5051166;28;20216;-86
2021/03/26 05:21:16;;;;;;;6.33;3.47;;;8.20;99.90;;;;;;5055922;28;20722;-86
2021/03/26 05:23:47;;;;;;;7.30;3.50;;;8.20;99.90;;;;;;5055447;28;20236;-86
2021/03/26 05:26:15;;;;;;;6.67;3.37;;;8.30;99.90;;;;;;5047809;28;20620;-85
2021/03/26 05:28:45;;;;;;;8.10;3.70;;;8.20;99.90;;;;;;5054844;28;20608;-86
2021/03/26 05:31:32;;;;;;;8.33;3.30;;;8.30;99.90;;;;;;5055456;28;20231;-87
2021/03/26 05:34:04;;;;;;;9.13;3.43;;;8.30;99.90;;;;;;5055981;28;20190;-86
2021/03/26 05:36:36;;;;;;;6.03;3.20;;;8.30;99.90;;;;;;5040276;28;20671;-85
2021/03/26 05:39:08;;;;;;;6.50;3.00;;;8.40;99.90;;;;;;5039240;28;20237;-86
2021/03/26 05:42:15;;;;;;;5.63;2.90;;;8.40;99.90;;;;;;5036551;28;20212;-86
2021/03/26 05:44:59;;;;;;;7.50;3.13;;;8.40;99.90;;;;;;5035378;28;20198;-85
2021/03/26 05:47:41;;;;;;;7.90;3.13;;;8.40;99.90;;;;;;5035698;28;20263;-86
2021/03/26 05:50:25;;;;;;;7.17;3.00;;;8.40;99.90;;;;;;5035478;28;20196;-85
2021/03/26 05:53:05;;;;;;;5.77;3.07;;;8.40;99.90;;;;;;5049274;28;20666;-84
2021/03/26 05:55:49;;;;;;;9.83;2.73;;;8.40;99.90;;;;;;5037437;28;20245;-85
2021/03/26 05:58:23;;;;;;;6.50;2.87;;;8.50;99.90;;;;;;5040697;28;20661;-85
2021/03/26 06:01:18;;;;;;;8.33;3.00;;;8.50;99.90;;;;;;5034752;28;20656;-85
2021/03/26 06:04:12;;;;;;;5.83;2.63;;;8.50;99.90;;;;;;5023376;28;20238;-87
2021/03/26 06:07:11;;;;;;;6.63;2.83;;;8.50;99.90;;;;;;5051908;28;20196;-85
2021/03/26 06:10:17;;;;;;;5.23;2.93;;;8.60;99.90;;;;;;5055445;28;20258;-85
2021/03/26 06:13:03;;;;;;;3.57;2.30;;;8.60;99.90;;;;;;5035104;28;20204;-84
2021/03/26 06:16:00;;;;;;;8.40;2.50;;;8.60;99.90;;;;;;5036001;28;20198;-87
2021/03/26 06:18:50;;;;;;;7.17;2.37;;;8.70;99.90;;;;;;4992933;28;20261;-87
2021/03/26 06:21:48;;;;;;;6.13;3.00;;;8.70;99.90;;;;;;4953664;28;20202;-84
2021/03/26 06:24:41;;;;;;;8.20;3.00;;;8.70;99.90;;;;;;4939752;29;20292;-86
2021/03/26 06:27:27;;;;;;;5.77;2.80;;;8.70;99.90;;;;;;4936449;29;20231;-86
2021/03/26 06:30:12;;;;;;;6.17;2.93;;;8.80;99.90;;;;;;4943733;29;20581;-83
2021/03/26 06:33:16;;;;;;;6.00;2.60;;;8.80;99.90;;;;;;4947606;29;20288;-83
2021/03/26 06:36:08;;;;;;;8.67;3.03;;;8.80;99.90;;;;;;4947872;29;20208;-83
2021/03/26 06:42:26;;;;;;;10.83;3.10;;;8.90;99.90;;;;;;4945871;29;20712;-84
2021/03/26 06:45:33;;;;;;;5.10;2.63;;;9.00;99.90;;;;;;4928570;29;20256;-84
2021/03/26 06:48:09;;;;;;;5.43;2.53;;;9.00;99.90;;;;;;4950486;28;20225;-86
2021/03/26 06:51:12;;;;;;;5.47;2.73;;;9.10;99.90;;;;;;4943915;28;20234;-83
2021/03/26 06:53:51;;;;;;;4.13;2.10;;;9.10;99.90;;;;;;4961904;28;20229;-82
2021/03/26 06:56:51;;;;;;;9.43;2.73;;;9.20;99.90;;;;;;4986344;28;20209;-84
2021/03/26 07:00:03;;;;;;;5.00;2.47;;;9.20;99.90;;;;;;5028874;28;20262;-84
2021/03/26 07:03:10;;;;;;;8.90;2.70;;;9.10;99.90;;;;;;5022189;28;20202;-84
2021/03/26 07:05:57;;;;;;;4.67;2.50;;;9.10;99.90;;;;;;4960498;28;20267;-84
2021/03/26 07:08:48;;;;;;;4.70;2.50;;;9.40;99.90;;;;;;4966193;28;20286;-84
2021/03/26 07:11:26;;;;;;;5.60;2.43;;;9.80;99.90;;;;;;4968445;28;20312;-83
2021/03/26 07:14:19;;;;;;;6.10;2.50;;;10.10;99.90;;;;;;4971676;28;20670;-83
2021/03/26 07:17:03;;;;;;;5.20;2.30;;;10.00;99.90;;;;;;4971653;28;20229;-84
2021/03/26 07:20:02;;;;;;;6.73;2.60;;;9.90;99.90;;;;;;4971236;28;20230;-83
2021/03/26 07:23:21;;;;;;;3.60;2.27;;;10.00;99.90;;;;;;4969140;28;20245;-84
2021/03/26 07:26:04;;;;;;;3.57;2.30;;;10.10;99.90;;;;;;4971582;28;20557;-84
2021/03/26 07:28:36;;;;;;;8.23;2.60;;;10.60;99.90;;;;;;4944517;28;20202;-84
2021/03/26 07:31:15;;;;;;;4.73;2.20;;;11.90;99.90;;;;;;4970295;28;20293;-85
2021/03/26 07:33:47;;;;;;;4.40;2.40;;;12.50;99.90;;;;;;4970314;28;20206;-84
2021/03/26 07:36:29;;;;;;;4.10;2.20;;;13.00;99.90;;;;;;5002728;28;20215;-84
2021/03/26 07:39:25;;;;;;;5.00;2.10;;;13.80;99.90;;;;;;5048763;28;20218;-84
2021/03/26 07:42:22;;;;;;;4.87;2.30;;;13.90;99.90;;;;;;5046578;28;20242;-85
2021/03/26 07:45:04;;;;;;;5.50;2.43;;;13.30;99.90;;;;;;5036849;28;20200;-84
2021/03/26 07:47:55;;;;;;;5.23;2.80;;;12.40;99.90;;;;;;5034734;28;20200;-84
2021/03/26 07:50:29;;;;;;;5.40;3.10;;;11.90;99.90;;;;;;5038150;28;20746;-84
2021/03/26 07:53:12;;;;;;;5.80;3.40;;;12.00;99.90;;;;;;5035921;28;20210;-83
2021/03/26 07:55:46;;;;;;;7.00;3.60;;;11.70;99.90;;;;;;5052639;28;20227;-84
2021/03/26 07:58:51;;;;;;;6.23;3.10;;;11.50;99.90;;;;;;5051645;28;20183;-83
2021/03/26 08:01:31;;;;;;;3.43;2.50;;;11.30;99.90;;;;;;5046459;28;20196;-86
2021/03/26 08:04:12;;;;;;;8.60;2.80;;;11.10;99.90;;;;;;5040384;28;20197;-85
2021/03/26 08:07:26;;;;;;;7.50;2.80;;;11.00;99.90;;;;;;5044557;28;20655;-87
2021/03/26 08:10:14;;;;;;;5.90;2.67;;;11.00;99.90;;;;;;5040842;28;20202;-86
2021/03/26 08:12:53;;;;;;;5.57;2.80;;;11.10;99.90;;;;;;5035644;28;20233;-87
2021/03/26 08:15:36;;;;;;;5.47;2.90;;;11.30;99.90;;;;;;5035903;28;20215;-86
2021/03/26 08:18:15;;;;;;;7.30;2.80;;;11.00;99.90;;;;;;5042658;28;20646;-86
2021/03/26 08:20:56;;;;;;;5.23;2.60;;;11.30;99.90;;;;;;5045475;28;20715;-85
2021/03/26 08:23:38;;;;;;;6.00;2.57;;;12.00;99.90;;;;;;5051366;28;20284;-86
2021/03/26 08:26:16;;;;;;;5.37;2.47;;;12.00;99.90;;;;;;5050910;28;20567;-88
2021/03/26 08:28:54;;;;;;;5.07;2.27;;;12.40;99.90;;;;;;5044028;28;20220;-88
2021/03/26 08:31:45;;;;;;;5.37;2.33;;;12.60;99.90;;;;;;5045570;28;20226;-89
2021/03/26 08:34:40;;;;;;;5.93;2.40;;;12.10;99.90;;;;;;5054886;28;20199;-89
2021/03/26 08:37:15;;;;;;;3.93;2.53;;;12.00;99.90;;;;;;5049914;28;20636;-88
2021/03/26 08:39:44;;;;;;;6.03;2.80;;;11.50;99.90;;;;;;5046850;28;20212;-88
2021/03/26 08:42:20;;;;;;;3.97;2.37;;;11.30;99.90;;;;;;5048142;28;20192;-89
2021/03/26 08:44:54;;;;;;;4.93;2.70;;;11.30;99.90;;;;;;5043063;28;20206;-91
2021/03/26 08:47:28;;;;;;;5.13;2.60;;;11.30;99.90;;;;;;5056143;28;20204;-90
2021/03/26 08:50:07;;;;;;;4.80;2.83;;;11.10;99.90;;;;;;5043099;28;20208;-90
2021/03/26 08:52:52;;;;;;;4.70;2.67;;;11.30;99.90;;;;;;5048481;28;20203;-81
2021/03/26 08:56:09;;;;;;;8.53;3.37;;;11.40;99.90;;;;;;5051817;28;20277;-81
2021/03/26 08:59:02;;;;;;;4.80;2.70;;;11.50;99.90;;;;;;4965248;28;20728;-83
2021/03/26 09:01:48;;;;;;;6.30;2.60;;;11.60;99.90;;;;;;4966645;28;20202;-85
2021/03/26 09:04:37;;;;;;;6.23;2.70;;;11.50;99.90;;;;;;4979022;28;20613;-86
2021/03/26 09:07:16;;;;;;;2.93;2.60;;;11.60;99.90;;;;;;4972940;28;20282;-87
2021/03/26 09:10:02;;;;;;;3.73;1.90;;;11.70;99.90;;;;;;4967706;28;20201;-86
2021/03/26 09:12:49;;;;;;;6.57;2.30;;;11.70;99.90;;;;;;4976959;28;20194;-88
2021/03/26 09:15:39;;;;;;;4.17;1.90;;;11.70;99.90;;;;;;4964331;28;20208;-86
2021/03/26 09:18:15;;;;;;;2.70;1.83;;;12.10;99.90;;;;;;4965527;28;20757;-88
2021/03/26 09:20:48;;;;;;;3.10;1.90;;;12.30;99.90;;;;;;4974298;28;20250;-87
2021/03/26 09:23:53;;;;;;;7.50;2.00;;;13.00;99.90;;;;;;4977191;28;20222;-87
2021/03/26 09:26:49;;;;;;;2.97;1.50;;;15.20;99.90;;;;;;4963697;28;20199;-86
2021/03/26 09:29:19;;;;;;;2.13;1.63;;;15.70;99.90;;;;;;5010795;28;20251;-87
2021/03/26 09:31:52;;;;;;;3.03;1.53;;;14.90;99.90;;;;;;5022092;28;20211;-89
2021/03/26 09:34:29;;;;;;;5.33;2.10;;;14.10;99.90;;;;;;5044060;28;20719;-87
2021/03/26 09:37:12;;;;;;;3.90;1.90;;;13.90;99.90;;;;;;5048540;28;20573;-88
2021/03/26 09:39:42;;;;;;;4.13;2.07;;;13.20;99.90;;;;;;5050254;28;20223;-88
2021/03/26 09:42:34;;;;;;;3.43;2.03;;;12.70;99.90;;;;;;5055624;28;20690;-88
2021/03/26 09:45:08;;;;;;;3.57;1.93;;;13.10;99.90;;;;;;5054166;28;20320;-88
2021/03/26 09:47:40;;;;;;;4.50;2.30;;;13.40;99.90;;;;;;5037387;28;20207;-89
2021/03/26 09:50:24;;;;;;;3.97;2.00;;;14.00;99.90;;;;;;5039267;28;20207;-88
2021/03/26 09:52:51;;;;;;;4.37;1.70;;;15.90;99.90;;;;;;5045577;28;20733;-88
2021/03/26 09:55:25;;;;;;;2.57;1.60;;;16.00;99.90;;;;;;5046770;28;20660;-87
2021/03/26 09:57:58;;;;;;;3.87;1.80;;;16.50;99.90;;;;;;5041637;28;20880;-89
2021/03/26 10:00:44;;;;;;;4.67;1.50;;;16.90;99.90;;;;;;5023082;28;20703;-89
2021/03/26 10:03:19;;;;;;;3.53;1.47;;;17.10;99.90;;;;;;5046684;28;20203;-89
2021/03/26 10:05:54;;;;;;;4.60;1.60;;;15.90;99.90;;;;;;5042005;28;20293;-86
2021/03/26 10:08:46;;;;;;;3.97;1.30;;;15.70;99.90;;;;;;5041957;28;20613;-88
2021/03/26 10:11:17;;;;;;;3.33;1.70;;;15.10;99.90;;;;;;5052726;28;20196;-88
2021/03/26 10:13:50;;;;;;;2.93;1.70;;;15.00;99.90;;;;;;5042272;28;20657;-87
2021/03/26 10:16:22;;;;;;;3.23;1.53;;;14.70;99.90;;;;;;5017770;28;20672;-89
2021/03/26 10:18:55;;;;;;;4.90;1.60;;;14.40;99.90;;;;;;5044608;28;20236;-88
2021/03/26 10:21:26;;;;;;;2.00;1.20;;;15.50;99.90;;;;;;5035438;28;20251;-88
2021/03/26 10:24:09;;;;;;;2.83;1.40;;;15.60;99.90;;;;;;5042619;28;20232;-89
2021/03/26 10:26:42;;;;;;;2.23;1.40;;;16.90;99.90;;;;;;5043740;28;20207;-88
2021/03/26 10:29:23;;;;;;;1.97;1.30;;;15.60;99.90;;;;;;5051592;28;20316;-87
2021/03/26 10:31:52;;;;;;;2.10;1.17;;;14.80;99.90;;;;;;5050381;28;20204;-89
2021/03/26 10:34:31;;;;;;;3.57;1.27;;;14.20;99.90;;;;;;5044356;28;20222;-88
2021/03/26 10:37:13;;;;;;;3.27;1.60;;;14.40;99.90;;;;;;5050462;28;20203;-88
2021/03/26 10:39:50;;;;;;;4.43;1.47;;;14.10;99.90;;;;;;5051533;28;20216;-87
2021/03/26 10:42:30;;;;;;;3.97;1.57;;;14.30;99.90;;;;;;5046915;28;20211;-88
2021/03/26 10:45:28;;;;;;;4.83;1.60;;;13.90;99.90;;;;;;5040139;28;20270;-88
2021/03/26 10:48:00;;;;;;;1.80;1.20;;;13.90;99.90;;;;;;5050447;28;20215;-88
2021/03/26 10:50:37;;;;;;;2.80;1.40;;;13.70;99.90;;;;;;5034738;28;20211;-88
2021/03/26 10:53:08;;;;;;;2.27;1.40;;;13.80;99.90;;;;;;5057291;28;20196;-89
2021/03/26 10:55:43;;;;;;;4.00;1.43;;;13.70;99.90;;;;;;5057669;28;20577;-89
2021/03/26 10:58:23;;;;;;;6.10;1.37;;;13.80;99.90;;;;;;5052370;28;20553;-89
2021/03/26 11:01:02;;;;;;;2.83;1.57;;;14.40;99.90;;;;;;5050075;28;20224;-88
2021/03/26 11:03:32;;;;;;;2.73;1.53;;;15.50;99.90;;;;;;5049573;28;20203;-88
2021/03/26 11:06:00;;;;;;;10.70;3.43;;;16.80;99.90;;;;;;5042952;28;20288;-88
2021/03/26 11:08:41;;;;;;;7.03;3.43;;;17.70;99.90;;;;;;5041979;28;20211;-87
2021/03/26 11:11:28;;;;;;;5.43;2.40;;;17.50;99.90;;;;;;5051773;28;20225;-86
2021/03/26 11:14:31;;;;;;;5.93;2.90;;;16.70;99.90;;;;;;5050725;28;20199;-86
2021/03/26 11:17:09;;;;;;;4.50;2.00;;;16.00;99.90;;;;;;5050166;28;20224;-85
2021/03/26 11:19:42;;;;;;;4.20;1.40;;;15.60;99.90;;;;;;5050707;28;20273;-86
2021/03/26 11:22:17;;;;;;;3.57;1.80;;;16.40;99.90;;;;;;5053998;28;20204;-88
2021/03/26 11:25:00;;;;;;;2.97;1.37;;;16.20;99.90;;;;;;5044451;28;20187;-88
2021/03/26 11:27:32;;;;;;;4.57;1.50;;;16.70;99.90;;;;;;5053753;28;20188;-87
2021/03/26 11:30:19;;;;;;;2.97;1.20;;;16.80;99.90;;;;;;5052876;28;20230;-86
2021/03/26 11:32:49;;;;;;;3.70;1.70;;;17.30;99.90;;;;;;5051929;28;20199;-88
2021/03/26 11:35:19;;;;;;;2.42;1.55;;;18.80;99.90;;;;;;5034061;28;20205;-86
2021/03/26 11:37:51;;;;;;;2.57;1.60;;;18.30;99.90;;;;;;5041904;28;20265;-88
2021/03/26 11:40:24;;;;;;;5.20;1.30;;;17.50;99.90;;;;;;5051821;28;20590;-91
2021/03/26 11:42:53;;;;;;;4.35;1.60;;;18.10;99.90;;;;;;5048650;28;20238;-88
2021/03/26 11:45:41;;;;;;;3.70;1.55;;;18.00;99.90;;;;;;5050419;28;20203;-87
2021/03/26 11:48:34;;;;;;;4.18;1.50;;;17.50;99.90;;;;;;5052936;28;20659;-89
2021/03/26 11:51:11;;;;;;;3.53;1.67;;;16.90;99.90;;;;;;5051138;28;20244;-87
2021/03/26 11:53:42;;;;;;;4.10;1.50;;;15.70;99.90;;;;;;5052813;28;20207;-86
2021/03/26 11:56:24;;;;;;;4.70;2.10;;;15.10;99.90;;;;;;5046841;28;20245;-86
2021/03/26 11:59:43;;;;;;;3.07;1.60;;;14.90;99.90;;;;;;5048695;28;20253;-88
2021/03/26 12:02:22;;;;;;;6.43;1.70;;;14.50;99.90;;;;;;5039509;28;20200;-87
2021/03/26 12:04:54;;;;;;;2.30;1.40;;;13.90;99.90;;;;;;5048403;28;20195;-85
2021/03/26 12:07:24;;;;;;;5.40;1.73;;;13.60;99.90;;;;;;5036396;28;20196;-84
2021/03/26 12:09:58;;;;;;;4.40;1.70;;;13.90;99.90;;;;;;5052657;28;20203;-85
2021/03/26 12:12:32;;;;;;;5.13;1.43;;;14.40;99.90;;;;;;5034413;28;20211;-84
2021/03/26 12:15:06;;;;;;;3.03;1.30;;;15.20;99.90;;;;;;5044766;28;20309;-85
2021/03/26 12:17:40;;;;;;;3.53;1.60;;;15.40;99.90;;;;;;5044447;28;20605;-82
2021/03/26 12:20:22;;;;;;;4.50;1.60;;;15.50;99.90;;;;;;5046665;28;20255;-85
2021/03/26 12:23:18;;;;;;;2.57;1.37;;;16.10;99.90;;;;;;5039938;28;20228;-85
2021/03/26 12:25:52;;;;;;;5.93;1.30;;;15.60;99.90;;;;;;5045642;28;20200;-85
2021/03/26 12:28:27;;;;;;;1.77;1.20;;;16.10;99.90;;;;;;5042206;28;20573;-85
2021/03/26 12:30:58;;;;;;;2.60;1.30;;;16.70;99.90;;;;;;5035971;28;20199;-85
2021/03/26 12:33:36;;;;;;;4.87;1.60;;;16.30;99.90;;;;;;5034405;28;20202;-85
2021/03/26 12:36:09;;;;;;;3.90;1.40;;;15.50;99.90;;;;;;5043659;28;20199;-86
2021/03/26 12:38:45;;;;;;;4.57;1.30;;;15.40;99.90;;;;;;5023777;28;20227;-87
2021/03/26 12:41:38;;;;;;;2.90;1.20;;;16.60;99.90;;;;;;5042734;28;20699;-85
2021/03/26 12:44:16;;;;;;;4.87;1.40;;;17.60;99.90;;;;;;5025769;28;20209;-85
2021/03/26 12:47:10;;;;;;;3.60;1.20;;;17.80;99.90;;;;;;5035362;28;20268;-86
2021/03/26 12:49:44;;;;;;;5.47;1.37;;;17.20;99.90;;;;;;5038674;28;20218;-85
2021/03/26 12:52:33;;;;;;;5.97;1.40;;;17.40;99.90;;;;;;5043289;28;20188;-85
2021/03/26 12:55:08;;;;;;;4.47;1.40;;;17.00;99.90;;;;;;5041219;28;20210;-85
2021/03/26 12:57:44;;;;;;;3.03;1.50;;;16.20;99.90;;;;;;5032588;28;20253;-86
2021/03/26 13:00:16;;;;;;;3.53;1.50;;;16.50;99.90;;;;;;5052233;28;20267;-89
2021/03/26 13:02:53;;;;;;;6.93;1.50;;;16.10;99.90;;;;;;5037452;28;21687;-87
2021/03/26 13:05:29;;;;;;;4.80;1.40;;;15.40;99.90;;;;;;5053198;28;20199;-90
2021/03/26 13:08:06;;;;;;;5.47;1.47;;;15.70;99.90;;;;;;5049776;28;20196;-90
2021/03/26 13:10:55;;;;;;;5.93;1.50;;;15.70;99.90;;;;;;5043944;28;20214;-88
2021/03/26 13:13:37;;;;;;;7.00;1.37;;;15.50;99.90;;;;;;5033855;28;20204;-87
2021/03/26 13:16:16;;;;;;;4.03;1.40;;;15.10;99.90;;;;;;5046500;28;20272;-89
2021/03/26 13:18:56;;;;;;;6.47;1.60;;;14.50;99.90;;;;;;5052027;28;20223;-87
2021/03/26 13:21:38;;;;;;;4.73;1.70;;;14.50;99.90;;;;;;5035720;28;20216;-87
2021/03/26 13:24:17;;;;;;;6.87;1.73;;;14.70;99.90;;;;;;5037517;28;20235;-87
2021/03/26 13:26:44;;;;;;;5.43;1.70;;;14.60;99.90;;;;;;5043577;28;20196;-88
2021/03/26 13:29:22;;;;;;;2.27;1.40;;;14.30;99.90;;;;;;5039277;28;20686;-89
2021/03/26 13:31:51;;;;;;;5.77;2.07;;;14.10;99.90;;;;;;5049791;28;20235;-89
2021/03/26 13:34:23;;;;;;;4.07;1.30;;;15.30;99.90;;;;;;5051076;28;20203;-88
2021/03/26 13:36:59;;;;;;;5.67;1.50;;;16.00;99.90;;;;;;5048927;28;20200;-87
2021/03/26 13:39:36;;;;;;;3.93;1.50;;;16.30;99.90;;;;;;5043513;28;20687;-88
2021/03/26 13:42:16;;;;;;;6.43;1.50;;;16.50;99.90;;;;;;5049721;28;20212;-90
2021/03/26 13:45:01;;;;;;;4.20;1.57;;;15.70;99.90;;;;;;5048179;28;20200;-89
2021/03/26 13:47:48;;;;;;;5.80;1.33;;;15.40;99.90;;;;;;5057240;28;20208;-90